createdAt,value
2019-03-16T00:00:48.278Z,6.6
2019-03-16T00:01:58.661Z,6.5
2019-03-16T00:03:00.702Z,6.6
2019-03-16T00:04:03.173Z,6.5
2019-03-16T00:05:05.204Z,6.5
2019-03-16T00:06:07.243Z,6.5
2019-03-16T00:07:09.260Z,6.5
2019-03-16T00:08:11.293Z,6.6
2019-03-16T00:09:13.327Z,6.5
2019-03-16T00:10:15.364Z,6.5
2019-03-16T00:11:17.791Z,6.5
2019-03-16T00:12:19.819Z,6.5
2019-03-16T00:13:21.904Z,6.5
2019-03-16T00:14:23.924Z,6.5
2019-03-16T00:15:25.973Z,6.5
2019-03-16T00:16:28.296Z,6.4
2019-03-16T00:17:30.323Z,6.4
2019-03-16T00:18:32.935Z,6.4
2019-03-16T00:19:34.994Z,6.4
2019-03-16T00:20:37.328Z,6.5
2019-03-16T00:21:39.357Z,6.5
2019-03-16T00:22:41.419Z,6.5
2019-03-16T00:23:43.438Z,6.5
2019-03-16T00:24:45.507Z,6.5
2019-03-16T00:25:47.551Z,6.5
2019-03-16T00:26:49.972Z,6.5
2019-03-16T00:27:52.419Z,6.4
2019-03-16T00:28:54.454Z,6.4
2019-03-16T00:29:56.486Z,6.4
2019-03-16T00:30:58.533Z,6.4
2019-03-16T00:32:14.797Z,6.5
2019-03-16T00:33:17.206Z,6.5
2019-03-16T00:34:20.285Z,6.5
2019-03-16T00:35:22.313Z,6.5
2019-03-16T00:36:24.343Z,6.5
2019-03-16T00:37:26.388Z,6.4
2019-03-16T00:38:28.424Z,6.4
2019-03-16T00:39:30.734Z,6.4
2019-03-16T00:40:32.845Z,6.4
2019-03-16T00:41:34.971Z,6.4
2019-03-16T00:42:37.005Z,6.5
2019-03-16T00:43:39.051Z,6.5
2019-03-16T00:44:41.069Z,6.5
2019-03-16T00:45:43.156Z,6.4
2019-03-16T00:46:45.189Z,6.4
2019-03-16T00:47:47.614Z,6.4
2019-03-16T00:48:49.635Z,6.3
2019-03-16T00:49:51.681Z,6.3
2019-03-16T00:50:54.008Z,6.3
2019-03-16T00:51:56.095Z,6.4
2019-03-16T00:52:58.196Z,6.4
2019-03-16T00:54:00.888Z,6.4
2019-03-16T00:55:02.928Z,6.4
2019-03-16T00:56:04.958Z,6.3
2019-03-16T00:57:07.386Z,6.1
2019-03-16T00:58:09.404Z,5.9
2019-03-16T00:59:11.838Z,5.7
2019-03-16T01:00:14.152Z,5.6
2019-03-16T01:01:16.170Z,5.5
2019-03-16T01:02:28.570Z,5.5
2019-03-16T01:03:30.612Z,5.5
2019-03-16T01:04:32.937Z,5.4
2019-03-16T01:05:35.260Z,5.4
2019-03-16T01:06:37.279Z,5.3
2019-03-16T01:07:39.313Z,5.3
2019-03-16T01:08:41.338Z,5.3
2019-03-16T01:09:44.868Z,5.3
2019-03-16T01:10:46.906Z,5.3
2019-03-16T01:11:48.954Z,5.3
2019-03-16T01:12:50.978Z,5.2
2019-03-16T01:13:53.018Z,5.2
2019-03-16T01:14:55.101Z,5.2
2019-03-16T01:15:57.142Z,5.3
2019-03-16T01:16:59.569Z,5.2
2019-03-16T01:18:01.591Z,5.2
2019-03-16T01:19:04.018Z,5.1
2019-03-16T01:20:06.050Z,5.1
2019-03-16T01:21:08.092Z,5.2
2019-03-16T01:22:10.106Z,5.1
2019-03-16T01:23:12.234Z,5.2
2019-03-16T01:24:14.538Z,5.2
2019-03-16T01:25:16.558Z,5.2
2019-03-16T01:26:18.601Z,5.1
2019-03-16T01:27:20.688Z,5.1
2019-03-16T01:28:22.734Z,5.1
2019-03-16T01:29:25.034Z,5.1
2019-03-16T01:30:27.079Z,5.1
2019-03-16T01:31:29.487Z,5
2019-03-16T01:32:42.292Z,5.1
2019-03-16T01:33:44.332Z,5.2
2019-03-16T01:34:46.370Z,5.3
2019-03-16T01:35:48.410Z,5.2
2019-03-16T01:36:50.451Z,5.3
2019-03-16T01:37:52.500Z,5.3
2019-03-16T01:38:54.531Z,5.3
2019-03-16T01:39:56.568Z,5.3
2019-03-16T01:40:58.692Z,5.4
2019-03-16T01:42:01.058Z,5.5
2019-03-16T01:43:03.098Z,5.4
2019-03-16T01:44:05.139Z,5.5
2019-03-16T01:45:07.169Z,5.5
2019-03-16T01:46:09.482Z,5.5
2019-03-16T01:47:11.575Z,5.6
2019-03-16T01:48:13.656Z,5.5
2019-03-16T01:49:15.684Z,5.5
2019-03-16T01:50:17.727Z,5.6
2019-03-16T01:51:20.063Z,5.6
2019-03-16T01:52:22.481Z,5.6
2019-03-16T01:53:24.597Z,5.6
2019-03-16T01:54:26.639Z,5.6
2019-03-16T01:55:28.652Z,5.5
2019-03-16T01:56:30.690Z,5.7
2019-03-16T01:57:32.718Z,5.7
2019-03-16T01:58:34.746Z,5.7
2019-03-16T01:59:36.790Z,5.7
2019-03-16T02:00:38.835Z,5.7
2019-03-16T02:01:40.984Z,5.7
2019-03-16T02:02:56.839Z,5.7
2019-03-16T02:03:58.878Z,5.7
2019-03-16T02:05:01.455Z,5.7
2019-03-16T02:06:03.568Z,5.7
2019-03-16T02:07:05.610Z,5.7
2019-03-16T02:08:07.910Z,5.7
2019-03-16T02:09:09.949Z,5.8
2019-03-16T02:10:12.651Z,5.7
2019-03-16T02:11:14.670Z,5.7
2019-03-16T02:12:16.794Z,5.7
2019-03-16T02:13:18.839Z,5.8
2019-03-16T02:14:20.879Z,5.8
2019-03-16T02:15:23.769Z,5.7
2019-03-16T02:16:25.800Z,5.8
2019-03-16T02:17:27.823Z,5.8
2019-03-16T02:18:29.934Z,5.8
2019-03-16T02:19:31.957Z,5.8
2019-03-16T02:20:37.743Z,5.8
2019-03-16T02:21:40.853Z,5.8
2019-03-16T02:22:43.045Z,5.8
2019-03-16T02:23:45.101Z,5.8
2019-03-16T02:24:47.504Z,5.8
2019-03-16T02:25:49.534Z,5.7
2019-03-16T02:26:51.648Z,5.7
2019-03-16T02:27:53.690Z,5.7
2019-03-16T02:28:56.264Z,5.8
2019-03-16T02:29:58.301Z,5.8
2019-03-16T02:31:00.339Z,5.8
2019-03-16T02:32:02.373Z,5.7
2019-03-16T02:33:14.833Z,5.7
2019-03-16T02:34:16.871Z,5.8
2019-03-16T02:35:19.470Z,5.8
2019-03-16T02:36:21.513Z,5.8
2019-03-16T02:37:23.958Z,5.8
2019-03-16T02:38:26.294Z,5.8
2019-03-16T02:39:28.642Z,5.8
2019-03-16T02:40:31.303Z,5.8
2019-03-16T02:41:33.342Z,5.9
2019-03-16T02:42:35.692Z,5.8
2019-03-16T02:43:38.779Z,5.8
2019-03-16T02:44:41.146Z,5.8
2019-03-16T02:45:43.251Z,5.9
2019-03-16T02:46:45.699Z,5.9
2019-03-16T02:47:48.127Z,5.9
2019-03-16T02:48:50.448Z,5.9
2019-03-16T02:49:52.495Z,5.9
2019-03-16T02:50:55.079Z,5.9
2019-03-16T02:51:57.117Z,5.9
2019-03-16T02:52:59.592Z,5.9
2019-03-16T02:54:01.998Z,5.9
2019-03-16T02:55:04.071Z,5.9
2019-03-16T02:56:06.527Z,5.9
2019-03-16T02:57:08.856Z,5.9
2019-03-16T02:58:11.001Z,5.9
2019-03-16T02:59:13.059Z,5.9
2019-03-16T03:00:15.574Z,5.9
2019-03-16T03:01:17.754Z,6
2019-03-16T03:02:20.262Z,6
2019-03-16T03:03:31.209Z,6
2019-03-16T03:04:33.297Z,6
2019-03-16T03:05:35.735Z,6
2019-03-16T03:06:38.039Z,6
2019-03-16T03:07:40.773Z,6
2019-03-16T03:08:42.839Z,6
2019-03-16T03:09:45.188Z,6
2019-03-16T03:10:47.908Z,6
2019-03-16T03:11:50.237Z,6
2019-03-16T03:12:53.052Z,5.9
2019-03-16T03:13:55.090Z,6
2019-03-16T03:14:57.430Z,6.1
2019-03-16T03:15:59.780Z,6.1
2019-03-16T03:17:02.492Z,6
2019-03-16T03:18:05.083Z,6.1
2019-03-16T03:19:07.178Z,6.1
2019-03-16T03:20:09.520Z,6.1
2019-03-16T03:21:11.881Z,6.1
2019-03-16T03:22:14.356Z,6.1
2019-03-16T03:23:16.865Z,6
2019-03-16T03:24:18.960Z,6
2019-03-16T03:25:22.053Z,6
2019-03-16T03:26:24.108Z,6
2019-03-16T03:27:26.194Z,6.1
2019-03-16T03:28:28.943Z,6
2019-03-16T03:29:31.535Z,6.1
2019-03-16T03:30:33.629Z,6.1
2019-03-16T03:31:36.244Z,6.1
2019-03-16T03:32:38.654Z,6
2019-03-16T03:34:04.258Z,6
2019-03-16T03:35:06.970Z,6
2019-03-16T03:36:09.019Z,6
2019-03-16T03:37:11.315Z,6.1
2019-03-16T03:38:13.640Z,6.1
2019-03-16T03:39:15.953Z,6
2019-03-16T03:40:18.735Z,6
2019-03-16T03:41:20.842Z,6
2019-03-16T03:42:22.929Z,6
2019-03-16T03:43:25.269Z,6
2019-03-16T03:44:27.575Z,6
2019-03-16T03:45:30.540Z,6.1
2019-03-16T03:46:33.761Z,6.1
2019-03-16T03:47:36.478Z,6.1
2019-03-16T03:48:38.546Z,6.1
2019-03-16T03:49:40.579Z,6.1
2019-03-16T03:50:42.630Z,6.1
2019-03-16T03:51:45.468Z,6.1
2019-03-16T03:52:47.921Z,6.1
2019-03-16T03:53:50.329Z,6
2019-03-16T03:54:52.379Z,6
2019-03-16T03:55:55.469Z,6.1
2019-03-16T03:56:57.865Z,6.1
2019-03-16T03:58:00.242Z,6
2019-03-16T03:59:02.303Z,6
2019-03-16T04:00:05.030Z,6
2019-03-16T04:01:07.364Z,6
2019-03-16T04:02:10.456Z,6.1
2019-03-16T04:03:12.500Z,6.1
2019-03-16T04:04:17.280Z,6
2019-03-16T04:05:19.331Z,6.1
2019-03-16T04:06:22.289Z,6.1
2019-03-16T04:07:24.330Z,6.1
2019-03-16T04:08:26.379Z,6.1
2019-03-16T04:09:28.689Z,6.1
2019-03-16T04:10:31.436Z,6.1
2019-03-16T04:11:33.768Z,6
2019-03-16T04:12:36.497Z,6
2019-03-16T04:13:39.513Z,6
2019-03-16T04:14:41.575Z,6.1
2019-03-16T04:15:44.313Z,6.1
2019-03-16T04:16:46.365Z,6.1
2019-03-16T04:17:48.676Z,6.1
2019-03-16T04:18:53.075Z,6.1
2019-03-16T04:19:55.735Z,6.1
2019-03-16T04:20:58.061Z,6
2019-03-16T04:22:00.113Z,6.1
2019-03-16T04:23:03.383Z,6
2019-03-16T04:24:05.724Z,6
2019-03-16T04:25:08.060Z,6
2019-03-16T04:26:10.381Z,6
2019-03-16T04:27:17.891Z,5.9
2019-03-16T04:28:19.946Z,5.9
2019-03-16T04:29:22.001Z,5.9
2019-03-16T04:30:24.327Z,5.9
2019-03-16T04:31:26.700Z,5.9
2019-03-16T04:32:28.744Z,5.8
2019-03-16T04:33:30.775Z,5.8
2019-03-16T04:34:32.828Z,5.8
2019-03-16T04:35:34.882Z,5.8
2019-03-16T04:36:37.312Z,5.9
2019-03-16T04:37:39.673Z,5.9
2019-03-16T04:38:41.977Z,5.9
2019-03-16T04:39:44.120Z,5.8
2019-03-16T04:40:46.163Z,5.8
2019-03-16T04:41:48.569Z,5.9
2019-03-16T04:42:50.672Z,5.9
2019-03-16T04:43:52.997Z,5.9
2019-03-16T04:44:55.025Z,5.9
2019-03-16T04:45:57.145Z,5.9
2019-03-16T04:46:59.184Z,5.9
2019-03-16T04:48:01.211Z,5.9
2019-03-16T04:49:03.248Z,5.9
2019-03-16T04:50:05.273Z,5.9
2019-03-16T04:51:07.618Z,5.9
2019-03-16T04:52:10.023Z,5.9
2019-03-16T04:53:12.051Z,5.9
2019-03-16T04:54:14.103Z,5.9
2019-03-16T04:55:16.264Z,5.9
2019-03-16T04:56:18.328Z,5.8
2019-03-16T04:57:20.382Z,5.8
2019-03-16T04:58:22.818Z,5.8
2019-03-16T04:59:24.854Z,5.8
2019-03-16T05:00:27.436Z,5.9
2019-03-16T05:01:29.473Z,5.8
2019-03-16T05:02:31.503Z,5.9
2019-03-16T05:03:33.535Z,5.9
2019-03-16T05:04:43.874Z,5.8
2019-03-16T05:05:45.901Z,5.8
2019-03-16T05:06:47.927Z,5.8
2019-03-16T05:07:49.978Z,5.8
2019-03-16T05:08:52.035Z,5.8
2019-03-16T05:09:54.366Z,5.7
2019-03-16T05:10:56.409Z,5.8
2019-03-16T05:11:58.487Z,5.7
2019-03-16T05:13:00.521Z,5.7
2019-03-16T05:14:02.556Z,5.8
2019-03-16T05:15:04.590Z,5.8
2019-03-16T05:16:06.609Z,5.8
2019-03-16T05:17:08.649Z,5.8
2019-03-16T05:18:10.761Z,5.7
2019-03-16T05:19:12.783Z,5.7
2019-03-16T05:20:14.899Z,5.7
2019-03-16T05:21:16.918Z,5.7
2019-03-16T05:22:18.951Z,5.7
2019-03-16T05:23:21.065Z,5.6
2019-03-16T05:24:23.211Z,5.7
2019-03-16T05:25:25.594Z,5.7
2019-03-16T05:26:27.630Z,5.7
2019-03-16T05:27:29.682Z,5.7
2019-03-16T05:28:32.014Z,5.7
2019-03-16T05:29:34.344Z,5.7
2019-03-16T05:30:36.378Z,5.7
2019-03-16T05:31:38.790Z,5.7
2019-03-16T05:32:40.815Z,5.7
2019-03-16T05:33:42.858Z,5.7
2019-03-16T05:34:58.138Z,5.7
2019-03-16T05:36:01.237Z,5.7
2019-03-16T05:37:03.276Z,5.7
2019-03-16T05:38:05.975Z,5.7
2019-03-16T05:39:08.303Z,5.7
2019-03-16T05:40:10.617Z,5.7
2019-03-16T05:41:12.650Z,5.7
2019-03-16T05:42:14.681Z,5.7
2019-03-16T05:43:16.719Z,5.7
2019-03-16T05:44:19.124Z,5.7
2019-03-16T05:45:21.163Z,5.7
2019-03-16T05:46:23.188Z,5.7
2019-03-16T05:47:25.218Z,5.7
2019-03-16T05:48:27.242Z,5.7
2019-03-16T05:49:29.306Z,5.7
2019-03-16T05:50:31.325Z,5.7
2019-03-16T05:51:33.632Z,5.7
2019-03-16T05:52:35.672Z,5.7
2019-03-16T05:53:38.088Z,5.7
2019-03-16T05:54:40.134Z,5.7
2019-03-16T05:55:42.165Z,5.7
2019-03-16T05:56:44.591Z,5.7
2019-03-16T05:57:46.687Z,5.6
2019-03-16T05:58:49.025Z,5.7
2019-03-16T05:59:51.056Z,5.7
2019-03-16T06:00:53.079Z,5.7
2019-03-16T06:01:55.116Z,5.7
2019-03-16T06:02:57.134Z,5.7
2019-03-16T06:03:59.168Z,5.8
2019-03-16T06:05:12.766Z,5.7
2019-03-16T06:06:14.804Z,5.7
2019-03-16T06:07:16.823Z,5.7
2019-03-16T06:08:18.853Z,5.7
2019-03-16T06:09:20.882Z,5.7
2019-03-16T06:10:23.001Z,5.8
2019-03-16T06:11:25.015Z,5.8
2019-03-16T06:12:27.053Z,5.8
2019-03-16T06:13:29.488Z,5.8
2019-03-16T06:14:31.498Z,5.8
2019-03-16T06:15:33.533Z,5.8
2019-03-16T06:16:35.564Z,5.8
2019-03-16T06:17:37.589Z,5.8
2019-03-16T06:18:39.638Z,5.8
2019-03-16T06:19:41.960Z,5.8
2019-03-16T06:20:43.985Z,5.9
2019-03-16T06:21:46.313Z,5.9
2019-03-16T06:22:48.363Z,5.9
2019-03-16T06:23:50.476Z,5.9
2019-03-16T06:24:52.785Z,5.9
2019-03-16T06:25:54.828Z,6
2019-03-16T06:26:57.135Z,6
2019-03-16T06:27:59.559Z,6
2019-03-16T06:29:01.583Z,6
2019-03-16T06:30:03.634Z,6
2019-03-16T06:31:05.645Z,6
2019-03-16T06:32:07.993Z,6
2019-03-16T06:33:10.024Z,6
2019-03-16T06:34:12.059Z,6
2019-03-16T06:35:30.356Z,6
2019-03-16T06:36:32.381Z,6.1
2019-03-16T06:37:34.414Z,6.1
2019-03-16T06:38:36.737Z,6.1
2019-03-16T06:39:39.070Z,6.1
2019-03-16T06:40:41.382Z,6.1
2019-03-16T06:41:44.621Z,6.1
2019-03-16T06:42:46.655Z,6.1
2019-03-16T06:43:48.977Z,6.2
2019-03-16T06:44:51.380Z,6.2
2019-03-16T06:45:53.692Z,6.2
2019-03-16T06:46:56.286Z,6.2
2019-03-16T06:47:58.326Z,6.2
2019-03-16T06:49:00.464Z,6.2
2019-03-16T06:50:02.782Z,6.2
2019-03-16T06:51:04.815Z,6.2
2019-03-16T06:52:06.832Z,6.2
2019-03-16T06:53:08.883Z,6.2
2019-03-16T06:54:10.914Z,6.2
2019-03-16T06:55:12.957Z,6.2
2019-03-16T06:56:15.069Z,6.2
2019-03-16T06:57:17.115Z,6.3
2019-03-16T06:58:19.147Z,6.3
2019-03-16T06:59:21.178Z,6.3
2019-03-16T07:00:23.215Z,6.3
2019-03-16T07:01:25.619Z,6.2
2019-03-16T07:02:27.651Z,6.3
2019-03-16T07:03:29.971Z,6.3
2019-03-16T07:04:32.100Z,6.4
2019-03-16T07:05:40.197Z,6.4
2019-03-16T07:06:42.228Z,6.4
2019-03-16T07:07:44.273Z,6.4
2019-03-16T07:08:46.296Z,6.4
2019-03-16T07:09:48.339Z,6.4
2019-03-16T07:10:50.363Z,6.5
2019-03-16T07:11:52.385Z,6.4
2019-03-16T07:12:54.411Z,6.5
2019-03-16T07:13:56.451Z,6.5
2019-03-16T07:14:58.483Z,6.4
2019-03-16T07:16:00.574Z,6.4
2019-03-16T07:17:03.647Z,6.5
2019-03-16T07:18:05.677Z,6.5
2019-03-16T07:19:07.704Z,6.4
2019-03-16T07:20:09.756Z,6.5
2019-03-16T07:21:11.772Z,6.5
2019-03-16T07:22:13.828Z,6.5
2019-03-16T07:23:16.839Z,6.4
2019-03-16T07:24:19.102Z,6.5
2019-03-16T07:25:21.511Z,6.6
2019-03-16T07:26:23.545Z,6.5
2019-03-16T07:27:27.580Z,6.5
2019-03-16T07:28:29.618Z,6.5
2019-03-16T07:29:32.018Z,6.5
2019-03-16T07:30:37.688Z,6.5
2019-03-16T07:31:39.722Z,6.5
2019-03-16T07:32:41.748Z,6.5
2019-03-16T07:33:43.787Z,6.5
2019-03-16T07:34:46.084Z,6.5
2019-03-16T07:35:48.126Z,6.5
2019-03-16T07:36:50.165Z,6.6
2019-03-16T07:37:52.593Z,6.6
2019-03-16T07:38:54.901Z,6.6
2019-03-16T07:39:56.954Z,6.6
2019-03-16T07:40:59.309Z,6.5
2019-03-16T07:42:01.846Z,6.6
2019-03-16T07:43:03.884Z,6.6
2019-03-16T07:44:05.913Z,6.6
2019-03-16T07:45:10.080Z,6.5
2019-03-16T07:46:12.110Z,6.6
2019-03-16T07:47:14.156Z,6.6
2019-03-16T07:48:16.187Z,6.6
2019-03-16T07:49:18.236Z,6.6
2019-03-16T07:50:20.278Z,6.5
2019-03-16T07:51:22.314Z,6.6
2019-03-16T07:52:24.343Z,6.6
2019-03-16T07:53:26.391Z,6.6
2019-03-16T07:54:31.902Z,6.7
2019-03-16T07:55:33.940Z,6.7
2019-03-16T07:56:35.969Z,6.7
2019-03-16T07:57:42.553Z,6.6
2019-03-16T07:58:44.878Z,6.7
2019-03-16T07:59:46.903Z,6.7
2019-03-16T08:00:49.600Z,6.7
2019-03-16T08:01:51.988Z,6.7
2019-03-16T08:02:54.421Z,6.7
2019-03-16T08:03:56.436Z,6.7
2019-03-16T08:04:58.769Z,6.8
2019-03-16T08:06:00.817Z,6.8
2019-03-16T08:07:02.845Z,6.8
2019-03-16T08:08:05.368Z,6.8
2019-03-16T08:09:07.967Z,6.9
2019-03-16T08:10:10.177Z,6.9
2019-03-16T08:11:12.773Z,6.8
2019-03-16T08:12:15.113Z,6.8
2019-03-16T08:13:17.146Z,6.9
2019-03-16T08:14:19.276Z,6.8
2019-03-16T08:15:21.327Z,6.9
2019-03-16T08:16:23.730Z,6.8
2019-03-16T08:17:25.772Z,6.9
2019-03-16T08:18:27.810Z,6.9
2019-03-16T08:19:30.134Z,7
2019-03-16T08:20:33.119Z,7
2019-03-16T08:21:35.150Z,6.9
2019-03-16T08:22:37.186Z,6.9
2019-03-16T08:23:39.233Z,7
2019-03-16T08:24:41.306Z,7
2019-03-16T08:25:43.338Z,7
2019-03-16T08:26:45.364Z,7
2019-03-16T08:27:55.710Z,7
2019-03-16T08:29:00.440Z,7
2019-03-16T08:30:03.146Z,6.9
2019-03-16T08:31:05.180Z,7
2019-03-16T08:32:07.596Z,7
2019-03-16T08:33:09.633Z,7
2019-03-16T08:34:11.676Z,7
2019-03-16T08:35:13.723Z,7
2019-03-16T08:36:15.738Z,7
2019-03-16T08:37:18.076Z,7.1
2019-03-16T08:38:20.105Z,7.1
2019-03-16T08:39:22.267Z,7.1
2019-03-16T08:40:24.339Z,7
2019-03-16T08:41:26.389Z,7
2019-03-16T08:42:28.414Z,7.1
2019-03-16T08:43:30.842Z,7
2019-03-16T08:44:32.867Z,7.1
2019-03-16T08:45:34.913Z,7.2
2019-03-16T08:46:36.943Z,7.1
2019-03-16T08:47:39.041Z,7.2
2019-03-16T08:48:41.120Z,7.1
2019-03-16T08:49:43.144Z,7.2
2019-03-16T08:50:45.311Z,7.2
2019-03-16T08:51:47.448Z,7.3
2019-03-16T08:52:49.481Z,7.2
2019-03-16T08:53:51.528Z,7.2
2019-03-16T08:54:53.584Z,7.3
2019-03-16T08:55:55.609Z,7.4
2019-03-16T08:56:57.651Z,7.5
2019-03-16T08:58:07.423Z,7.5
2019-03-16T08:59:09.468Z,7.4
2019-03-16T09:00:11.563Z,7.3
2019-03-16T09:01:13.676Z,7.3
2019-03-16T09:02:15.705Z,7.4
2019-03-16T09:03:18.020Z,7.4
2019-03-16T09:04:20.110Z,7.5
2019-03-16T09:05:22.158Z,7.5
2019-03-16T09:06:24.198Z,7.5
2019-03-16T09:07:26.326Z,7.4
2019-03-16T09:08:28.652Z,7.4
2019-03-16T09:09:31.280Z,7.4
2019-03-16T09:10:33.327Z,7.4
2019-03-16T09:11:35.511Z,7.4
2019-03-16T09:12:37.547Z,7.5
2019-03-16T09:13:39.610Z,7.4
2019-03-16T09:14:41.637Z,7.6
2019-03-16T09:15:43.687Z,7.5
2019-03-16T09:16:45.713Z,7.6
2019-03-16T09:17:47.888Z,7.8
2019-03-16T09:18:49.962Z,7.9
2019-03-16T09:19:51.997Z,7.9
2019-03-16T09:20:54.028Z,8
2019-03-16T09:21:56.081Z,8.1
2019-03-16T09:22:59.009Z,8.2
2019-03-16T09:24:01.083Z,8.2
2019-03-16T09:25:03.406Z,8.1
2019-03-16T09:26:05.906Z,8.1
2019-03-16T09:27:08.210Z,7.9
2019-03-16T09:28:20.056Z,8
2019-03-16T09:29:22.093Z,8
2019-03-16T09:30:24.128Z,8
2019-03-16T09:31:26.169Z,7.8
2019-03-16T09:32:28.203Z,7.9
2019-03-16T09:33:30.268Z,7.9
2019-03-16T09:34:32.334Z,8
2019-03-16T09:35:34.366Z,8
2019-03-16T09:36:36.708Z,8.2
2019-03-16T09:37:38.765Z,8.4
2019-03-16T09:38:40.830Z,8.6
2019-03-16T09:39:43.146Z,8.5
2019-03-16T09:40:45.186Z,8.6
2019-03-16T09:41:47.232Z,8.3
2019-03-16T09:42:49.259Z,8.3
2019-03-16T09:43:51.303Z,8.1
2019-03-16T09:44:53.364Z,8
2019-03-16T09:45:55.416Z,8.1
2019-03-16T09:46:57.479Z,8.2
2019-03-16T09:47:59.535Z,8.3
2019-03-16T09:49:01.586Z,8.2
2019-03-16T09:50:03.622Z,8.2
2019-03-16T09:51:05.681Z,8.1
2019-03-16T09:52:07.704Z,8.1
2019-03-16T09:53:09.749Z,8.2
2019-03-16T09:54:11.798Z,8.2
2019-03-16T09:55:14.200Z,8.2
2019-03-16T09:56:16.254Z,8.3
2019-03-16T09:57:18.301Z,8.3
2019-03-16T09:58:32.924Z,8.3
2019-03-16T10:00:07.126Z,8.3
2019-03-16T10:01:09.270Z,8.5
2019-03-16T10:02:11.397Z,8.4
2019-03-16T10:03:13.530Z,8.4
2019-03-16T10:04:15.958Z,8.4
2019-03-16T10:05:18.103Z,8.3
2019-03-16T10:06:20.518Z,8.3
2019-03-16T10:07:22.648Z,8.2
2019-03-16T10:08:25.033Z,8.2
2019-03-16T10:09:27.447Z,8.2
2019-03-16T10:10:30.160Z,8.3
2019-03-16T10:11:32.283Z,8.2
2019-03-16T10:12:34.420Z,8.2
2019-03-16T10:13:36.543Z,8.3
2019-03-16T10:14:38.697Z,8.1
2019-03-16T10:15:41.206Z,8.2
2019-03-16T10:16:43.383Z,8.2
2019-03-16T10:17:45.574Z,8.1
2019-03-16T10:18:47.696Z,8.1
2019-03-16T10:19:49.852Z,8.1
2019-03-16T10:20:52.008Z,8.1
2019-03-16T10:21:54.146Z,8
2019-03-16T10:22:56.558Z,8
2019-03-16T10:23:58.687Z,8.1
2019-03-16T10:25:01.548Z,8.1
2019-03-16T10:26:03.691Z,8.1
2019-03-16T10:27:05.818Z,8.1
2019-03-16T10:28:07.949Z,8
2019-03-16T10:29:10.122Z,7.9
2019-03-16T10:30:12.583Z,7.9
2019-03-16T10:31:14.631Z,7.9
2019-03-16T10:32:16.750Z,8
2019-03-16T10:33:23.728Z,8.1
2019-03-16T10:34:26.681Z,8
2019-03-16T10:35:28.753Z,7.9
2019-03-16T10:36:30.805Z,7.9
2019-03-16T10:37:32.842Z,8
2019-03-16T10:38:34.879Z,8.1
2019-03-16T10:39:36.915Z,8.2
2019-03-16T10:40:39.044Z,8.2
2019-03-16T10:41:41.065Z,8.3
2019-03-16T10:42:43.123Z,8.3
2019-03-16T10:43:45.180Z,8.4
2019-03-16T10:44:47.213Z,8.5
2019-03-16T10:45:49.544Z,8.4
2019-03-16T10:46:51.656Z,8.5
2019-03-16T10:47:53.705Z,8.4
2019-03-16T10:48:55.724Z,8.4
2019-03-16T10:49:58.175Z,8.4
2019-03-16T10:51:04.603Z,8.4
2019-03-16T10:52:07.372Z,8.3
2019-03-16T10:53:09.428Z,8.3
2019-03-16T10:54:11.750Z,8.3
2019-03-16T10:55:13.838Z,8.3
2019-03-16T10:56:15.879Z,8.1
2019-03-16T10:57:18.227Z,8.1
2019-03-16T10:58:20.260Z,8.2
2019-03-16T10:59:22.314Z,8.2
2019-03-16T11:00:24.402Z,8.1
2019-03-16T11:01:26.438Z,8.3
2019-03-16T11:02:28.499Z,8.3
2019-03-16T11:03:30.524Z,8.3
2019-03-16T11:04:32.580Z,8.3
2019-03-16T11:05:34.699Z,8.2
2019-03-16T11:06:36.756Z,8.1
2019-03-16T11:07:38.782Z,8.1
2019-03-16T11:08:40.903Z,8.1
2019-03-16T11:09:42.954Z,8.1
2019-03-16T11:10:45.081Z,7.9
2019-03-16T11:11:47.415Z,7.9
2019-03-16T11:12:49.458Z,7.9
2019-03-16T11:13:51.561Z,7.7
2019-03-16T11:14:53.574Z,7.7
2019-03-16T11:15:55.628Z,7.7
2019-03-16T11:16:57.683Z,7.6
2019-03-16T11:17:59.719Z,7.6
2019-03-16T11:19:01.849Z,7.6
2019-03-16T11:20:04.300Z,7.5
2019-03-16T11:21:06.336Z,7.6
2019-03-16T11:22:08.363Z,7.6
2019-03-16T11:23:10.702Z,7.6
2019-03-16T11:24:12.729Z,7.6
2019-03-16T11:25:14.763Z,7.5
2019-03-16T11:26:16.803Z,7.5
2019-03-16T11:27:18.847Z,7.5
2019-03-16T11:28:20.912Z,7.6
2019-03-16T11:29:23.331Z,7.5
2019-03-16T11:30:25.373Z,7.6
2019-03-16T11:31:27.389Z,7.6
2019-03-16T11:32:29.432Z,7.5
2019-03-16T11:33:31.484Z,7.5
2019-03-16T11:34:33.517Z,7.5
2019-03-16T11:35:35.568Z,7.6
2019-03-16T11:36:38.302Z,7.6
2019-03-16T11:37:40.347Z,7.6
2019-03-16T11:38:42.691Z,7.6
2019-03-16T11:39:45.010Z,7.5
2019-03-16T11:40:47.058Z,7.4
2019-03-16T11:41:49.125Z,7.4
2019-03-16T11:42:51.465Z,7.3
2019-03-16T11:43:53.503Z,7.3
2019-03-16T11:44:55.848Z,7.4
2019-03-16T11:45:57.889Z,7.3
2019-03-16T11:46:59.931Z,7.2
2019-03-16T11:48:01.980Z,7.3
2019-03-16T11:49:04.397Z,7.3
2019-03-16T11:50:06.710Z,7.2
2019-03-16T11:51:08.754Z,7.2
2019-03-16T11:52:10.812Z,7.2
2019-03-16T11:53:12.839Z,7.2
2019-03-16T11:54:14.914Z,7.2
2019-03-16T11:55:16.950Z,7.1
2019-03-16T11:56:20.005Z,7.1
2019-03-16T11:57:22.044Z,7.1
2019-03-16T11:58:24.073Z,7
2019-03-16T11:59:26.112Z,7
2019-03-16T12:00:28.186Z,6.9
2019-03-16T12:01:30.538Z,7
2019-03-16T12:02:32.672Z,6.9
2019-03-16T12:03:35.001Z,6.8
2019-03-16T12:04:37.708Z,6.8
2019-03-16T12:05:39.781Z,6.9
2019-03-16T12:06:41.831Z,6.9
2019-03-16T12:07:43.870Z,6.9
2019-03-16T12:08:45.914Z,6.9
2019-03-16T12:09:47.937Z,6.8
2019-03-16T12:10:50.333Z,6.8
2019-03-16T12:11:52.677Z,6.9
2019-03-16T12:12:54.715Z,6.9
2019-03-16T12:13:56.732Z,6.8
2019-03-16T12:14:58.775Z,6.8
2019-03-16T12:16:00.810Z,6.8
2019-03-16T12:17:02.842Z,6.9
2019-03-16T12:18:04.921Z,6.9
2019-03-16T12:19:06.955Z,6.8
2019-03-16T12:20:08.981Z,6.8
2019-03-16T12:21:11.336Z,6.7
2019-03-16T12:22:13.649Z,6.6
2019-03-16T12:23:15.678Z,6.5
2019-03-16T12:24:17.711Z,6.5
2019-03-16T12:25:19.754Z,6.5
2019-03-16T12:26:21.879Z,6.5
2019-03-16T12:27:23.922Z,6.5
2019-03-16T12:28:25.971Z,6.6
2019-03-16T12:29:35.423Z,6.5
2019-03-16T12:30:37.457Z,6.5
2019-03-16T12:31:39.512Z,6.7
2019-03-16T12:32:41.552Z,6.6
2019-03-16T12:33:43.570Z,6.6
2019-03-16T12:34:45.657Z,6.5
2019-03-16T12:35:47.731Z,6.6
2019-03-16T12:36:49.779Z,6.5
2019-03-16T12:37:52.072Z,6.5
2019-03-16T12:38:54.119Z,6.4
2019-03-16T12:39:56.170Z,6.5
2019-03-16T12:40:58.201Z,6.4
2019-03-16T12:42:00.260Z,6.5
2019-03-16T12:43:02.292Z,6.5
2019-03-16T12:44:05.262Z,6.4
2019-03-16T12:45:07.360Z,6.5
2019-03-16T12:46:09.404Z,6.5
2019-03-16T12:47:11.727Z,6.5
2019-03-16T12:48:13.768Z,6.3
2019-03-16T12:49:15.819Z,6.3
2019-03-16T12:50:18.280Z,6.3
2019-03-16T12:51:20.811Z,6.2
2019-03-16T12:52:22.844Z,6.2
2019-03-16T12:53:24.871Z,6.2
2019-03-16T12:54:26.933Z,6.2
2019-03-16T12:55:28.996Z,6.1
2019-03-16T12:56:31.059Z,6.2
2019-03-16T12:57:33.258Z,6.2
2019-03-16T12:58:35.731Z,6.2
2019-03-16T12:59:48.562Z,6.2
2019-03-16T13:00:50.600Z,6.3
2019-03-16T13:01:53.052Z,6.4
2019-03-16T13:02:55.138Z,6.4
2019-03-16T13:03:57.195Z,6.3
2019-03-16T13:04:59.221Z,6.2
2019-03-16T13:06:01.353Z,6.3
2019-03-16T13:07:03.464Z,6.3
2019-03-16T13:08:05.488Z,6.3
2019-03-16T13:09:07.527Z,6.2
2019-03-16T13:10:09.664Z,6.3
2019-03-16T13:11:11.768Z,6.1
2019-03-16T13:12:13.796Z,6.1
2019-03-16T13:13:15.843Z,6
2019-03-16T13:14:17.883Z,5.9
2019-03-16T13:15:19.996Z,5.9
2019-03-16T13:16:22.048Z,5.9
2019-03-16T13:17:24.084Z,5.9
2019-03-16T13:18:26.179Z,5.9
2019-03-16T13:19:28.267Z,5.9
2019-03-16T13:20:30.320Z,6
2019-03-16T13:21:32.370Z,6
2019-03-16T13:22:34.411Z,6
2019-03-16T13:23:36.447Z,5.9
2019-03-16T13:24:38.744Z,5.9
2019-03-16T13:25:40.818Z,5.9
2019-03-16T13:26:42.881Z,5.9
2019-03-16T13:27:45.284Z,5.9
2019-03-16T13:28:47.336Z,5.9
2019-03-16T13:30:00.440Z,5.9
2019-03-16T13:31:02.469Z,5.9
2019-03-16T13:32:04.510Z,5.8
2019-03-16T13:33:06.605Z,5.9
2019-03-16T13:34:08.650Z,5.8
2019-03-16T13:35:10.744Z,5.6
2019-03-16T13:36:12.862Z,5.6
2019-03-16T13:37:14.955Z,5.6
2019-03-16T13:38:16.992Z,5.6
2019-03-16T13:39:19.138Z,5.6
2019-03-16T13:40:21.217Z,5.6
2019-03-16T13:41:23.264Z,5.6
2019-03-16T13:42:25.689Z,5.6
2019-03-16T13:43:27.925Z,5.5
2019-03-16T13:44:30.026Z,5.5
2019-03-16T13:45:32.138Z,5.5
2019-03-16T13:46:34.176Z,5.5
2019-03-16T13:47:36.215Z,5.5
2019-03-16T13:48:38.812Z,5.5
2019-03-16T13:49:40.940Z,5.5
2019-03-16T13:50:43.836Z,5.5
2019-03-16T13:51:46.096Z,5.5
2019-03-16T13:52:48.145Z,5.4
2019-03-16T13:53:50.210Z,5.4
2019-03-16T13:54:53.135Z,5.4
2019-03-16T13:55:56.030Z,5.3
2019-03-16T13:56:58.074Z,5.3
2019-03-16T13:58:00.145Z,5.4
2019-03-16T13:59:02.494Z,5.4
2019-03-16T14:00:13.466Z,5.3
2019-03-16T14:01:15.826Z,5.3
2019-03-16T14:02:19.131Z,5.3
2019-03-16T14:03:21.198Z,5.3
2019-03-16T14:04:23.246Z,5.3
2019-03-16T14:05:25.309Z,5.2
2019-03-16T14:06:28.099Z,5.2
2019-03-16T14:07:30.422Z,5.1
2019-03-16T14:08:32.816Z,5.2
2019-03-16T14:09:35.595Z,5.2
2019-03-16T14:10:38.184Z,5.1
2019-03-16T14:11:42.710Z,5.1
2019-03-16T14:12:44.775Z,5.2
2019-03-16T14:13:47.629Z,5.2
2019-03-16T14:14:50.197Z,5.1
2019-03-16T14:15:52.250Z,5.1
2019-03-16T14:16:54.295Z,5.1
2019-03-16T14:17:59.873Z,5
2019-03-16T14:19:01.954Z,5.1
2019-03-16T14:20:04.669Z,5
2019-03-16T14:21:06.713Z,5
2019-03-16T14:22:09.353Z,5
2019-03-16T14:23:12.156Z,5
2019-03-16T14:24:14.818Z,4.9
2019-03-16T14:25:16.849Z,4.9
2019-03-16T14:26:18.989Z,4.9
2019-03-16T14:27:31.869Z,4.8
2019-03-16T14:28:36.722Z,4.9